createdAt,value
2022-09-10T00:01:59.509Z,7.75
2022-09-10T00:04:27.660Z,8.65
2022-09-10T00:06:55.582Z,9.23
2022-09-10T00:09:22.815Z,7.97
2022-09-10T00:11:49.718Z,8.32
2022-09-10T00:14:21.271Z,8.38
2022-09-10T00:16:48.541Z,7.68
2022-09-10T00:19:15.804Z,8.43
2022-09-10T00:21:44.415Z,9.10
2022-09-10T00:24:11.617Z,8.23
2022-09-10T00:26:39.477Z,7.28
2022-09-10T00:29:09.486Z,7.70
2022-09-10T00:31:37.003Z,7.90
2022-09-10T00:34:05.954Z,8.02
2022-09-10T00:36:37.010Z,6.80
2022-09-10T00:39:06.714Z,7.68
2022-09-10T00:41:35.212Z,7.50
2022-09-10T00:44:06.001Z,7.72
2022-09-10T00:46:50.167Z,6.78
2022-09-10T00:49:22.989Z,7.68
2022-09-10T00:51:53.551Z,7.10
2022-09-10T00:54:23.898Z,7.35
2022-09-10T00:56:53.499Z,8.52
2022-09-10T00:59:23.739Z,9.65
2022-09-10T01:01:50.538Z,9.93
2022-09-10T01:04:17.257Z,9.73
2022-09-10T01:06:45.772Z,9.10
2022-09-10T01:09:14.175Z,8.38
2022-09-10T01:11:56.131Z,8.30
2022-09-10T01:14:46.186Z,8.45
2022-09-10T01:17:45.010Z,8.05
2022-09-10T01:20:12.566Z,8.77
2022-09-10T01:22:54.651Z,9.43
2022-09-10T01:25:49.223Z,10.23
2022-09-10T01:28:25.114Z,10.73
2022-09-10T01:30:57.896Z,9.70
2022-09-10T01:33:34.560Z,10.32
2022-09-10T01:36:09.668Z,10.13
2022-09-10T01:38:38.810Z,9.38
2022-09-10T01:41:06.005Z,9.55
2022-09-10T01:43:33.807Z,8.90
2022-09-10T01:46:31.015Z,9.48
2022-09-10T01:52:12.669Z,10.18
2022-09-10T01:55:06.110Z,9.80
2022-09-10T01:57:48.705Z,9.68
2022-09-10T02:00:18.039Z,10.80
2022-09-10T02:03:04.329Z,10.70
2022-09-10T02:05:35.329Z,12.57
2022-09-10T02:08:07.758Z,10.90
2022-09-10T02:10:34.967Z,12.38
2022-09-10T02:13:01.731Z,11.32
2022-09-10T02:15:29.626Z,10.65
2022-09-10T02:17:57.095Z,10.95
2022-09-10T02:20:27.671Z,12.85
2022-09-10T02:22:58.677Z,12.68
2022-09-10T02:25:31.291Z,13.02
2022-09-10T02:28:04.416Z,14.40
2022-09-10T02:30:31.082Z,14.27
2022-09-10T02:32:58.158Z,14.82
2022-09-10T02:35:24.736Z,15.95
2022-09-10T02:37:51.308Z,14.95
2022-09-10T02:40:19.459Z,15.35
2022-09-10T02:42:46.875Z,14.75
2022-09-10T02:45:14.636Z,14.70
2022-09-10T02:47:41.723Z,15.13
2022-09-10T02:50:08.822Z,16.13
2022-09-10T02:52:35.685Z,14.18
2022-09-10T02:55:02.268Z,15.80
2022-09-10T02:57:28.909Z,15.45
2022-09-10T02:59:56.511Z,15.32
2022-09-10T03:02:23.553Z,16.38
2022-09-10T03:04:50.130Z,17.02
2022-09-10T03:07:20.034Z,17.17
2022-09-10T03:09:47.320Z,16.27
2022-09-10T03:12:15.834Z,16.75
2022-09-10T03:14:43.593Z,16.25
2022-09-10T03:17:10.335Z,15.45
2022-09-10T03:19:37.057Z,15.70
2022-09-10T03:22:03.754Z,15.00
2022-09-10T03:24:30.470Z,14.40
2022-09-10T03:26:57.209Z,15.40
2022-09-10T03:29:24.472Z,16.90
2022-09-10T03:31:51.792Z,16.17
2022-09-10T03:34:18.996Z,16.70
2022-09-10T03:36:47.380Z,16.58
2022-09-10T03:39:16.169Z,17.42
2022-09-10T03:41:42.754Z,17.63
2022-09-10T03:44:10.270Z,17.45
2022-09-10T03:46:38.116Z,16.63
2022-09-10T03:49:06.160Z,15.93
2022-09-10T03:51:34.094Z,16.08
2022-09-10T03:54:01.166Z,15.85
2022-09-10T03:56:28.064Z,13.63
2022-09-10T03:58:54.631Z,14.55
2022-09-10T04:01:21.270Z,15.25
2022-09-10T04:03:47.916Z,14.77
2022-09-10T04:06:16.219Z,14.18
2022-09-10T04:08:44.119Z,15.40
2022-09-10T04:11:11.021Z,13.65
2022-09-10T04:13:37.663Z,15.52
2022-09-10T04:16:04.735Z,14.77
2022-09-10T04:18:34.203Z,14.60
2022-09-10T04:21:00.812Z,14.45
2022-09-10T04:23:27.476Z,15.98
2022-09-10T04:25:54.082Z,15.85
2022-09-10T04:28:20.634Z,14.82
2022-09-10T04:30:48.106Z,16.33
2022-09-10T04:33:14.764Z,14.88
2022-09-10T04:35:43.114Z,14.90
2022-09-10T04:38:10.041Z,15.05
2022-09-10T04:40:36.798Z,15.82
2022-09-10T04:43:04.394Z,16.88
2022-09-10T04:45:33.068Z,15.55
2022-09-10T04:48:03.602Z,14.82
2022-09-10T04:50:32.856Z,15.18
2022-09-10T04:52:59.510Z,16.08
2022-09-10T04:55:26.122Z,14.82
2022-09-10T04:57:53.031Z,14.20
2022-09-10T05:00:19.739Z,13.85
2022-09-10T05:02:46.684Z,14.45
2022-09-10T05:05:13.887Z,13.77
2022-09-10T05:07:40.504Z,14.07
2022-09-10T05:10:10.442Z,13.52
2022-09-10T05:12:38.530Z,14.73
2022-09-10T05:15:06.735Z,13.82
2022-09-10T05:17:34.193Z,13.45
2022-09-10T05:20:00.896Z,13.20
2022-09-10T05:22:35.017Z,12.60
2022-09-10T05:25:04.384Z,12.70
2022-09-10T05:27:30.943Z,11.70
2022-09-10T05:29:57.594Z,12.05
2022-09-10T05:32:24.702Z,11.85
2022-09-10T05:34:51.290Z,11.80
2022-09-10T05:37:18.786Z,13.35
2022-09-10T05:39:47.304Z,16.05
2022-09-10T05:42:14.495Z,15.43
2022-09-10T05:44:41.445Z,16.30
2022-09-10T05:47:08.814Z,15.57
2022-09-10T05:49:35.419Z,16.58
2022-09-10T05:52:02.192Z,17.05
2022-09-10T05:54:28.847Z,16.27
2022-09-10T05:56:55.396Z,14.43
2022-09-10T05:59:21.962Z,14.38
2022-09-10T06:01:51.362Z,15.68
2022-09-10T06:04:19.863Z,14.65
2022-09-10T06:06:47.791Z,15.07
2022-09-10T06:09:14.679Z,13.52
2022-09-10T06:11:41.837Z,12.77
2022-09-10T06:14:09.048Z,14.73
2022-09-10T06:16:35.679Z,14.43
2022-09-10T06:19:03.040Z,15.30
2022-09-10T06:21:32.814Z,15.85
2022-09-10T06:23:59.770Z,17.90
2022-09-10T06:26:26.640Z,16.23
2022-09-10T06:28:56.909Z,15.95
2022-09-10T06:31:23.526Z,15.10
2022-09-10T06:33:50.131Z,15.55
2022-09-10T06:36:16.722Z,16.10
2022-09-10T06:38:45.623Z,14.07
2022-09-10T06:41:14.294Z,15.30
2022-09-10T06:43:41.670Z,16.20
2022-09-10T06:46:40.831Z,15.55
2022-09-10T06:49:02.843Z,15.43
2022-09-10T06:51:29.940Z,16.42
2022-09-10T06:53:57.679Z,15.10
2022-09-10T06:56:24.471Z,13.48
2022-09-10T06:58:51.728Z,11.90
2022-09-10T07:01:21.590Z,12.95
2022-09-10T07:03:48.299Z,11.98
2022-09-10T07:06:17.206Z,11.85
2022-09-10T07:08:44.162Z,10.60
2022-09-10T07:11:12.939Z,9.38
2022-09-10T07:13:40.623Z,10.18
2022-09-10T07:16:07.767Z,8.88
2022-09-10T07:18:34.697Z,8.98
2022-09-10T07:21:11.156Z,9.43
2022-09-10T07:23:39.120Z,9.23
2022-09-10T07:26:08.285Z,8.40
2022-09-10T07:28:36.301Z,9.02
2022-09-10T07:31:13.673Z,8.75
2022-09-10T07:33:40.966Z,8.10
2022-09-10T07:36:08.446Z,6.50
2022-09-10T07:38:35.042Z,6.93
2022-09-10T07:41:02.083Z,6.75
2022-09-10T07:43:29.538Z,6.50
2022-09-10T07:45:59.055Z,6.60
2022-09-10T07:48:28.441Z,6.70
2022-09-10T07:51:02.425Z,6.53
2022-09-10T07:53:29.108Z,6.47
2022-09-10T07:56:05.771Z,5.85
2022-09-10T07:58:36.003Z,6.40
2022-09-10T08:01:09.193Z,5.90
2022-09-10T08:03:36.647Z,6.55
2022-09-10T08:06:04.428Z,5.43
2022-09-10T08:08:32.985Z,5.18
2022-09-10T08:11:17.524Z,3.75
2022-09-10T08:13:46.449Z,2.22
2022-09-10T08:16:16.133Z,2.25
2022-09-10T08:18:43.790Z,2.15
2022-09-10T08:21:11.090Z,2.42
2022-09-10T08:23:39.600Z,2.80
2022-09-10T08:26:08.176Z,2.90
2022-09-10T08:28:36.098Z,1.77
2022-09-10T08:31:07.778Z,1.67
2022-09-10T08:33:36.360Z,2.00
2022-09-10T08:36:04.792Z,1.50
2022-09-10T08:38:33.703Z,1.38
2022-09-10T08:41:02.515Z,1.50
2022-09-10T08:43:41.827Z,1.80
2022-09-10T08:46:21.229Z,1.30
2022-09-10T08:48:55.131Z,1.00
2022-09-10T08:51:30.053Z,1.60
2022-09-10T08:54:02.709Z,1.85
2022-09-10T08:56:30.257Z,1.67
2022-09-10T08:59:03.825Z,1.35
2022-09-10T09:01:50.136Z,1.27
2022-09-10T09:04:35.635Z,1.20
2022-09-10T09:07:11.598Z,1.10
2022-09-10T09:09:38.193Z,1.60
2022-09-10T09:12:22.059Z,1.20
2022-09-10T09:14:50.606Z,1.10
2022-09-10T09:17:44.761Z,1.83
2022-09-10T09:20:25.744Z,1.70
2022-09-10T09:22:55.738Z,0.73
2022-09-10T09:25:33.064Z,0.90
2022-09-10T09:28:00.569Z,0.88
2022-09-10T09:30:37.179Z,0.70
2022-09-10T09:33:13.990Z,0.73
2022-09-10T09:35:49.504Z,0.90
2022-09-10T09:38:24.838Z,1.05
2022-09-10T09:40:56.570Z,0.88
2022-09-10T09:43:58.929Z,0.70
2022-09-10T09:46:25.916Z,0.75
2022-09-10T09:48:57.871Z,1.00
2022-09-10T09:51:27.016Z,0.80
2022-09-10T09:54:25.780Z,0.90
2022-09-10T09:56:49.931Z,0.70
2022-09-10T09:59:34.729Z,1.33
2022-09-10T10:02:11.981Z,0.65
2022-09-10T10:04:42.439Z,0.80
2022-09-10T10:07:09.511Z,0.80
2022-09-10T10:09:43.106Z,0.60
2022-09-10T10:12:20.726Z,0.85
2022-09-10T10:14:47.351Z,0.90
2022-09-10T10:17:31.282Z,0.80
2022-09-10T10:20:13.380Z,0.73
2022-09-10T10:22:45.437Z,0.73
2022-09-10T10:25:43.168Z,1.00
2022-09-10T10:28:20.054Z,0.80
2022-09-10T10:30:55.347Z,0.82
2022-09-10T10:33:28.852Z,0.90
2022-09-10T10:36:15.437Z,0.60
2022-09-10T10:38:51.685Z,0.90
2022-09-10T10:41:41.213Z,0.63
2022-09-10T10:44:37.022Z,0.65
2022-09-10T10:47:16.911Z,0.50
2022-09-10T10:50:00.011Z,0.60
2022-09-10T10:52:40.669Z,0.55
2022-09-10T10:55:28.575Z,0.60
2022-09-10T10:58:10.321Z,1.02
2022-09-10T11:00:48.496Z,0.57
2022-09-10T11:03:29.410Z,0.93
2022-09-10T11:06:04.979Z,0.77
2022-09-10T11:08:40.500Z,0.63
2022-09-10T11:11:16.538Z,0.55
2022-09-10T11:13:51.538Z,0.55
2022-09-10T11:16:31.852Z,0.52
2022-09-10T11:19:09.435Z,0.50
2022-09-10T11:21:58.804Z,0.60
2022-09-10T11:24:34.155Z,0.52
2022-09-10T11:27:14.441Z,0.22
2022-09-10T11:29:48.409Z,0.40
2022-09-10T11:32:30.182Z,0.30
2022-09-10T11:35:32.891Z,0.40
2022-09-10T11:38:20.706Z,0.47
2022-09-10T11:40:52.177Z,0.60
2022-09-10T11:43:33.320Z,0.90
2022-09-10T11:46:08.111Z,0.55
2022-09-10T11:48:48.395Z,0.43
2022-09-10T11:51:24.249Z,0.50
2022-09-10T11:53:51.300Z,0.73
2022-09-10T11:56:33.269Z,0.50
2022-09-10T11:58:59.884Z,0.47
2022-09-10T12:01:58.379Z,0.40
2022-09-10T12:04:50.887Z,0.52
2022-09-10T12:07:39.022Z,0.57
2022-09-10T12:10:32.858Z,0.30
2022-09-10T12:12:59.762Z,0.20
2022-09-10T12:15:31.166Z,0.40
2022-09-10T12:18:04.195Z,0.40
2022-09-10T12:20:36.834Z,0.50
2022-09-10T12:23:05.014Z,0.30
2022-09-10T12:25:34.794Z,0.50
2022-09-10T12:28:08.080Z,0.50
2022-09-10T12:30:36.010Z,0.30
2022-09-10T12:33:24.727Z,0.40
2022-09-10T12:35:52.347Z,0.32
2022-09-10T12:38:49.907Z,0.20
2022-09-10T12:41:37.226Z,0.20
2022-09-10T12:44:43.624Z,0.40
2022-09-10T12:47:42.733Z,0.40
2022-09-10T12:50:22.044Z,0.40
2022-09-10T12:52:51.620Z,0.50
2022-09-10T12:55:42.791Z,0.40
2022-09-10T12:58:34.409Z,0.40
2022-09-10T13:01:17.432Z,0.40
2022-09-10T13:03:54.991Z,0.40
2022-09-10T13:06:35.229Z,0.30
2022-09-10T13:09:14.783Z,0.32
2022-09-10T13:11:46.241Z,0.43
2022-09-10T13:14:22.190Z,0.30
2022-09-10T13:16:51.229Z,0.20
2022-09-10T13:19:19.486Z,0.38
2022-09-10T13:21:48.063Z,0.30
2022-09-10T13:24:38.629Z,0.40
2022-09-10T13:27:22.650Z,0.38
2022-09-10T13:29:56.546Z,0.30
2022-09-10T13:32:29.537Z,0.30
2022-09-10T13:35:06.561Z,0.28
2022-09-10T13:38:00.427Z,0.40
2022-09-10T13:40:57.523Z,0.40
2022-09-10T13:45:57.142Z,0.40
2022-09-10T13:49:00.151Z,0.05
2022-09-10T13:51:36.788Z,0.28
2022-09-10T13:54:25.031Z,0.22
2022-09-10T13:56:52.606Z,0.63
2022-09-10T13:59:28.831Z,1.35
2022-09-10T14:04:26.240Z,1.63
2022-09-10T14:06:57.849Z,1.52
2022-09-10T14:09:26.144Z,0.60
2022-09-10T14:11:53.602Z,1.08
2022-09-10T14:14:25.688Z,0.75
2022-09-10T14:16:56.278Z,0.90
2022-09-10T14:19:27.330Z,1.88
2022-09-10T14:21:55.672Z,0.85
2022-09-10T14:24:48.666Z,0.77
2022-09-10T14:27:21.942Z,0.47
2022-09-10T14:29:50.371Z,0.68
2022-09-10T14:32:37.389Z,0.45
2022-09-10T14:35:39.250Z,0.63
2022-09-10T14:38:21.377Z,0.40
2022-09-10T14:40:48.195Z,0.60
2022-09-10T14:43:26.320Z,0.50
2022-09-10T14:45:53.772Z,0.65
2022-09-10T14:48:55.615Z,0.50
2022-09-10T14:51:22.866Z,0.60
2022-09-10T14:53:52.920Z,0.95
2022-09-10T14:56:37.492Z,0.55
2022-09-10T14:59:34.586Z,0.57
2022-09-10T15:02:05.742Z,0.60
2022-09-10T15:04:32.372Z,0.60
2022-09-10T15:07:00.801Z,0.40
2022-09-10T15:09:29.198Z,0.60
2022-09-10T15:12:12.067Z,0.43
2022-09-10T15:14:39.082Z,0.65
2022-09-10T15:17:05.691Z,0.40
2022-09-10T15:19:32.366Z,0.32
2022-09-10T15:21:59.698Z,0.50
2022-09-10T15:24:26.415Z,0.60
2022-09-10T15:26:53.038Z,0.65
2022-09-10T15:29:19.703Z,0.50
2022-09-10T15:31:47.328Z,0.60
2022-09-10T15:34:14.426Z,0.30
2022-09-10T15:36:41.811Z,0.50
2022-09-10T15:39:12.208Z,1.02
2022-09-10T15:41:44.287Z,0.60
2022-09-10T15:44:11.752Z,0.47
2022-09-10T15:46:45.239Z,0.77
2022-09-10T15:49:12.230Z,0.70
2022-09-10T15:51:39.294Z,0.70
2022-09-10T15:54:06.269Z,2.42
2022-09-10T15:56:33.342Z,2.53
2022-09-10T15:59:00.915Z,6.07
2022-09-10T16:01:29.104Z,2.30
2022-09-10T16:03:58.213Z,1.70
2022-09-10T16:06:27.906Z,1.90
2022-09-10T16:08:57.441Z,0.50
2022-09-10T16:11:25.229Z,0.68
2022-09-10T16:13:52.320Z,0.57
2022-09-10T16:16:20.850Z,0.73
2022-09-10T16:18:48.164Z,0.60
2022-09-10T16:21:18.607Z,0.70
2022-09-10T16:23:47.218Z,0.70
2022-09-10T16:26:17.770Z,0.38
2022-09-10T16:29:00.486Z,0.85
2022-09-10T16:31:31.484Z,0.80
2022-09-10T16:34:00.082Z,0.70
2022-09-10T16:36:27.397Z,0.70
2022-09-10T16:38:55.902Z,0.52
2022-09-10T16:41:24.314Z,0.57
2022-09-10T16:43:51.785Z,0.50
2022-09-10T16:46:18.610Z,0.75
2022-09-10T16:48:45.846Z,1.00
2022-09-10T16:51:14.755Z,0.55
2022-09-10T16:53:44.352Z,0.60
2022-09-10T16:56:13.462Z,0.95
2022-09-10T16:58:41.456Z,0.52
2022-09-10T17:01:09.522Z,0.80
2022-09-10T17:03:40.954Z,0.70
2022-09-10T17:06:14.822Z,0.75
2022-09-10T17:08:41.603Z,0.88
2022-09-10T17:11:09.383Z,0.65
2022-09-10T17:13:36.137Z,0.60
2022-09-10T17:16:23.944Z,0.88
2022-09-10T17:18:57.437Z,1.70
2022-09-10T17:21:25.905Z,1.17
2022-09-10T17:23:53.801Z,0.98
2022-09-10T17:26:20.451Z,0.80
2022-09-10T17:28:57.928Z,1.73
2022-09-10T17:31:25.736Z,1.70
2022-09-10T17:33:52.298Z,1.15
2022-09-10T17:36:19.761Z,0.90
2022-09-10T17:38:47.360Z,0.80
2022-09-10T17:41:14.631Z,0.80
2022-09-10T17:43:43.276Z,0.98
2022-09-10T17:46:14.929Z,0.70
2022-09-10T17:48:45.655Z,0.77
2022-09-10T17:51:15.659Z,0.73
2022-09-10T17:53:43.444Z,1.00
2022-09-10T17:56:12.439Z,0.80
2022-09-10T17:58:39.251Z,1.23
2022-09-10T18:01:10.565Z,0.73
2022-09-10T18:03:37.637Z,0.50
2022-09-10T18:06:06.476Z,0.80
2022-09-10T18:08:33.615Z,0.80
2022-09-10T18:11:05.768Z,0.90
2022-09-10T18:13:35.067Z,1.08
2022-09-10T18:16:12.075Z,1.00
2022-09-10T18:18:39.371Z,0.80
2022-09-10T18:21:15.678Z,0.98
2022-09-10T18:23:44.428Z,1.30
2022-09-10T18:26:16.116Z,0.90
2022-09-10T18:28:44.126Z,0.75
2022-09-10T18:31:11.365Z,1.35
2022-09-10T18:33:43.450Z,1.10
2022-09-10T18:36:13.163Z,1.00
2022-09-10T18:38:40.300Z,1.00
2022-09-10T18:41:18.854Z,1.10
2022-09-10T18:43:46.623Z,1.30
2022-09-10T18:46:13.596Z,0.90
2022-09-10T18:48:40.759Z,1.20
2022-09-10T18:51:10.726Z,0.93
2022-09-10T18:53:40.358Z,0.80
2022-09-10T18:56:09.960Z,1.20
2022-09-10T18:58:37.406Z,1.15
2022-09-10T19:01:07.044Z,1.40
2022-09-10T19:03:36.309Z,1.40
2022-09-10T19:06:05.974Z,1.05
2022-09-10T19:08:34.042Z,1.40
2022-09-10T19:11:02.161Z,1.23
2022-09-10T19:13:29.888Z,4.35
2022-09-10T19:15:59.459Z,6.55
2022-09-10T19:18:29.112Z,10.13
2022-09-10T19:20:56.477Z,9.15
2022-09-10T19:23:23.946Z,5.95
2022-09-10T19:25:56.128Z,5.22
2022-09-10T19:28:23.778Z,3.53
2022-09-10T19:30:52.092Z,2.90
2022-09-10T19:33:18.754Z,2.47
2022-09-10T19:35:45.897Z,2.33
2022-09-10T19:38:34.281Z,1.73
2022-09-10T19:41:10.849Z,1.90
2022-09-10T19:43:37.684Z,1.80
2022-09-10T19:46:05.905Z,1.90
2022-09-10T19:48:33.552Z,2.55
2022-09-10T19:51:02.236Z,2.70
2022-09-10T19:53:31.479Z,2.47
2022-09-10T19:56:19.759Z,2.80
2022-09-10T19:58:51.539Z,2.70
2022-09-10T20:01:19.983Z,2.78
2022-09-10T20:03:48.213Z,2.55
2022-09-10T20:06:18.390Z,2.30
2022-09-10T20:08:47.205Z,2.53
2022-09-10T20:11:32.929Z,2.50
2022-09-10T20:14:02.334Z,17.58
2022-09-10T20:16:29.960Z,71.82
2022-09-10T20:18:57.122Z,37.35
2022-09-10T20:21:26.935Z,20.95
2022-09-10T20:23:56.394Z,14.75
2022-09-10T20:26:27.161Z,10.90
2022-09-10T20:28:57.974Z,7.53
2022-09-10T20:31:27.120Z,8.60
2022-09-10T20:33:56.383Z,7.28
2022-09-10T20:36:24.054Z,6.65
2022-09-10T20:38:51.840Z,4.53
2022-09-10T20:41:18.666Z,4.05
2022-09-10T20:43:51.727Z,2.83
2022-09-10T20:46:20.484Z,2.65
2022-09-10T20:48:49.269Z,3.22
2022-09-10T20:51:17.986Z,3.38
2022-09-10T20:53:45.014Z,4.03
2022-09-10T20:56:14.155Z,3.08
2022-09-10T20:58:41.493Z,2.08
2022-09-10T21:01:09.364Z,1.85
2022-09-10T21:03:36.961Z,1.70
2022-09-10T21:06:04.395Z,2.03
2022-09-10T21:08:32.059Z,1.60
2022-09-10T21:11:04.997Z,2.30
2022-09-10T21:13:34.187Z,1.73
2022-09-10T21:16:08.882Z,2.05
2022-09-10T21:18:41.790Z,1.95
2022-09-10T21:21:11.831Z,2.30
2022-09-10T21:23:47.623Z,1.65
2022-09-10T21:26:18.163Z,1.92
2022-09-10T21:28:45.035Z,2.05
2022-09-10T21:31:12.995Z,2.08
2022-09-10T21:33:41.939Z,2.30
2022-09-10T21:36:11.719Z,2.08
2022-09-10T21:38:39.346Z,2.30
2022-09-10T21:41:08.442Z,1.88
2022-09-10T21:43:35.570Z,2.08
2022-09-10T21:46:04.417Z,2.13
2022-09-10T21:48:35.843Z,2.17
2022-09-10T21:51:06.010Z,2.40
2022-09-10T21:53:34.147Z,2.17
2022-09-10T21:56:02.867Z,2.92
2022-09-10T21:58:33.209Z,2.63
2022-09-10T22:00:59.921Z,2.20
2022-09-10T22:03:29.520Z,3.63
2022-09-10T22:06:05.442Z,2.33
2022-09-10T22:08:33.458Z,2.63
2022-09-10T22:11:09.873Z,2.63
2022-09-10T22:13:37.964Z,2.35
2022-09-10T22:16:06.100Z,2.33
2022-09-10T22:18:34.199Z,2.50
2022-09-10T22:21:01.091Z,2.45
2022-09-10T22:23:30.351Z,2.40
2022-09-10T22:26:03.321Z,2.40
2022-09-10T22:28:35.085Z,2.35
2022-09-10T22:31:13.015Z,2.40
2022-09-10T22:33:41.830Z,2.90
2022-09-10T22:36:30.848Z,2.60
2022-09-10T22:39:00.085Z,2.78
2022-09-10T22:41:28.341Z,2.65
2022-09-10T22:43:55.296Z,2.42
2022-09-10T22:46:24.140Z,2.50
2022-09-10T22:48:51.053Z,1.70
2022-09-10T22:51:20.391Z,1.95
2022-09-10T22:53:48.105Z,1.70
2022-09-10T22:56:17.078Z,2.00
2022-09-10T22:58:44.993Z,1.83
2022-09-10T23:01:14.124Z,2.03
2022-09-10T23:03:41.659Z,1.73
2022-09-10T23:06:08.419Z,1.70
2022-09-10T23:08:36.814Z,1.83
2022-09-10T23:11:15.303Z,2.13
2022-09-10T23:13:43.848Z,2.22
2022-09-10T23:16:12.943Z,2.22
2022-09-10T23:18:41.326Z,2.00
2022-09-10T23:21:09.062Z,2.28
2022-09-10T23:23:36.287Z,1.55
2022-09-10T23:26:07.062Z,1.75
2022-09-10T23:28:33.778Z,2.45
2022-09-10T23:31:10.472Z,2.38
2022-09-10T23:33:37.109Z,1.83
2022-09-10T23:36:04.270Z,1.60
2022-09-10T23:38:31.498Z,1.73
2022-09-10T23:41:00.243Z,1.50
2022-09-10T23:43:29.902Z,1.55
2022-09-10T23:45:56.597Z,1.65
2022-09-10T23:48:24.518Z,1.63
2022-09-10T23:50:52.279Z,1.52
2022-09-10T23:53:19.340Z,1.40
2022-09-10T23:55:46.204Z,1.55
2022-09-10T23:58:12.854Z,1.80
